sensor_id;sensor_type;location;lat;lon;timestamp;P1;durP1;ratioP1;P2;durP2;ratioP2
52320;SDS011;38261;54.090;13.382;2023-03-01T00:00:07;8.53;;;4.50;;
52320;SDS011;38261;54.090;13.382;2023-03-01T00:01:30;10.00;;;3.50;;
52320;SDS011;38261;54.090;13.382;2023-03-01T00:02:53;11.63;;;4.20;;
52320;SDS011;38261;54.090;13.382;2023-03-01T00:04:16;6.40;;;4.53;;
52320;SDS011;38261;54.090;13.382;2023-03-01T00:05:45;7.60;;;4.20;;
52320;SDS011;38261;54.090;13.382;2023-03-01T00:07:08;8.43;;;4.37;;
52320;SDS011;38261;54.090;13.382;2023-03-01T00:08:30;6.30;;;4.40;;
52320;SDS011;38261;54.090;13.382;2023-03-01T00:09:54;8.43;;;4.93;;
52320;SDS011;38261;54.090;13.382;2023-03-01T00:11:20;6.27;;;3.97;;
52320;SDS011;38261;54.090;13.382;2023-03-01T00:12:46;7.67;;;4.60;;
52320;SDS011;38261;54.090;13.382;2023-03-01T00:14:08;9.83;;;4.07;;
52320;SDS011;38261;54.090;13.382;2023-03-01T00:15:31;5.90;;;3.67;;
52320;SDS011;38261;54.090;13.382;2023-03-01T00:16:53;6.40;;;3.47;;
52320;SDS011;38261;54.090;13.382;2023-03-01T00:18:15;8.30;;;4.07;;
52320;SDS011;38261;54.090;13.382;2023-03-01T00:19:38;5.90;;;4.27;;
52320;SDS011;38261;54.090;13.382;2023-03-01T00:21:00;6.80;;;4.80;;
52320;SDS011;38261;54.090;13.382;2023-03-01T00:22:22;6.57;;;4.10;;
52320;SDS011;38261;54.090;13.382;2023-03-01T00:23:44;7.60;;;4.10;;
52320;SDS011;38261;54.090;13.382;2023-03-01T00:25:07;6.73;;;4.23;;
52320;SDS011;38261;54.090;13.382;2023-03-01T00:26:29;7.00;;;3.97;;
52320;SDS011;38261;54.090;13.382;2023-03-01T00:27:52;7.60;;;4.53;;
52320;SDS011;38261;54.090;13.382;2023-03-01T00:29:14;8.00;;;3.83;;
52320;SDS011;38261;54.090;13.382;2023-03-01T00:30:36;6.47;;;3.63;;
52320;SDS011;38261;54.090;13.382;2023-03-01T00:31:59;6.67;;;4.13;;
52320;SDS011;38261;54.090;13.382;2023-03-01T00:33:21;5.77;;;3.63;;
52320;SDS011;38261;54.090;13.382;2023-03-01T00:34:43;8.43;;;4.23;;
52320;SDS011;38261;54.090;13.382;2023-03-01T00:36:15;5.40;;;4.07;;
52320;SDS011;38261;54.090;13.382;2023-03-01T00:37:37;6.93;;;3.90;;
52320;SDS011;38261;54.090;13.382;2023-03-01T00:39:00;7.10;;;4.10;;
52320;SDS011;38261;54.090;13.382;2023-03-01T00:40:22;6.70;;;4.30;;
52320;SDS011;38261;54.090;13.382;2023-03-01T00:41:51;7.63;;;4.40;;
52320;SDS011;38261;54.090;13.382;2023-03-01T00:43:13;8.00;;;4.23;;
52320;SDS011;38261;54.090;13.382;2023-03-01T00:44:35;6.80;;;3.87;;
52320;SDS011;38261;54.090;13.382;2023-03-01T00:46:00;5.67;;;3.90;;
52320;SDS011;38261;54.090;13.382;2023-03-01T00:47:23;9.77;;;4.30;;
52320;SDS011;38261;54.090;13.382;2023-03-01T00:48:45;4.97;;;3.83;;
52320;SDS011;38261;54.090;13.382;2023-03-01T00:50:07;7.30;;;3.70;;
52320;SDS011;38261;54.090;13.382;2023-03-01T00:51:30;12.83;;;4.53;;
52320;SDS011;38261;54.090;13.382;2023-03-01T00:52:54;9.17;;;4.07;;
52320;SDS011;38261;54.090;13.382;2023-03-01T00:54:17;4.20;;;3.33;;
52320;SDS011;38261;54.090;13.382;2023-03-01T00:55:39;6.00;;;3.50;;
52320;SDS011;38261;54.090;13.382;2023-03-01T00:57:01;9.47;;;4.20;;
52320;SDS011;38261;54.090;13.382;2023-03-01T00:58:23;8.27;;;3.83;;
52320;SDS011;38261;54.090;13.382;2023-03-01T00:59:45;6.53;;;3.47;;
52320;SDS011;38261;54.090;13.382;2023-03-01T01:01:08;5.90;;;3.70;;
52320;SDS011;38261;54.090;13.382;2023-03-01T01:02:38;6.53;;;3.90;;
52320;SDS011;38261;54.090;13.382;2023-03-01T01:04:03;4.80;;;3.63;;
52320;SDS011;38261;54.090;13.382;2023-03-01T01:05:26;8.60;;;4.60;;
52320;SDS011;38261;54.090;13.382;2023-03-01T01:06:48;8.97;;;3.17;;
52320;SDS011;38261;54.090;13.382;2023-03-01T01:08:11;8.73;;;4.10;;
52320;SDS011;38261;54.090;13.382;2023-03-01T01:09:33;7.97;;;4.13;;
52320;SDS011;38261;54.090;13.382;2023-03-01T01:10:55;8.10;;;4.13;;
52320;SDS011;38261;54.090;13.382;2023-03-01T01:12:17;5.00;;;3.97;;
52320;SDS011;38261;54.090;13.382;2023-03-01T01:13:40;9.03;;;4.33;;
52320;SDS011;38261;54.090;13.382;2023-03-01T01:15:02;13.57;;;4.90;;
52320;SDS011;38261;54.090;13.382;2023-03-01T01:16:25;9.20;;;3.50;;
52320;SDS011;38261;54.090;13.382;2023-03-01T01:17:48;5.93;;;4.20;;
52320;SDS011;38261;54.090;13.382;2023-03-01T01:19:11;6.43;;;4.00;;
52320;SDS011;38261;54.090;13.382;2023-03-01T01:20:34;9.67;;;4.97;;
52320;SDS011;38261;54.090;13.382;2023-03-01T01:21:57;6.10;;;3.90;;
52320;SDS011;38261;54.090;13.382;2023-03-01T01:23:19;7.50;;;4.10;;
52320;SDS011;38261;54.090;13.382;2023-03-01T01:24:41;6.03;;;4.00;;
52320;SDS011;38261;54.090;13.382;2023-03-01T01:26:21;11.20;;;4.23;;
52320;SDS011;38261;54.090;13.382;2023-03-01T01:27:48;6.63;;;4.00;;
52320;SDS011;38261;54.090;13.382;2023-03-01T01:29:10;7.40;;;3.83;;
52320;SDS011;38261;54.090;13.382;2023-03-01T01:30:33;4.87;;;4.27;;
52320;SDS011;38261;54.090;13.382;2023-03-01T01:31:55;5.33;;;3.80;;
52320;SDS011;38261;54.090;13.382;2023-03-01T01:33:17;5.50;;;3.47;;
52320;SDS011;38261;54.090;13.382;2023-03-01T01:34:39;9.40;;;4.23;;
52320;SDS011;38261;54.090;13.382;2023-03-01T01:36:01;6.27;;;3.90;;
52320;SDS011;38261;54.090;13.382;2023-03-01T01:37:24;7.77;;;4.30;;
52320;SDS011;38261;54.090;13.382;2023-03-01T01:38:52;5.70;;;3.83;;
52320;SDS011;38261;54.090;13.382;2023-03-01T01:40:15;10.20;;;4.13;;
52320;SDS011;38261;54.090;13.382;2023-03-01T01:41:37;10.53;;;4.60;;
52320;SDS011;38261;54.090;13.382;2023-03-01T01:42:59;7.13;;;3.90;;
52320;SDS011;38261;54.090;13.382;2023-03-01T01:44:23;8.83;;;4.50;;
52320;SDS011;38261;54.090;13.382;2023-03-01T01:45:47;9.37;;;4.53;;
52320;SDS011;38261;54.090;13.382;2023-03-01T01:47:14;7.17;;;4.23;;
52320;SDS011;38261;54.090;13.382;2023-03-01T01:48:41;7.30;;;4.43;;
52320;SDS011;38261;54.090;13.382;2023-03-01T01:50:08;6.27;;;4.40;;
52320;SDS011;38261;54.090;13.382;2023-03-01T01:51:37;10.40;;;4.60;;
52320;SDS011;38261;54.090;13.382;2023-03-01T01:53:01;6.70;;;4.27;;
52320;SDS011;38261;54.090;13.382;2023-03-01T01:54:36;10.73;;;4.77;;
52320;SDS011;38261;54.090;13.382;2023-03-01T01:56:06;6.40;;;4.00;;
52320;SDS011;38261;54.090;13.382;2023-03-01T01:57:34;6.97;;;3.97;;
52320;SDS011;38261;54.090;13.382;2023-03-01T01:58:57;5.80;;;4.57;;
52320;SDS011;38261;54.090;13.382;2023-03-01T02:00:21;9.53;;;4.50;;
52320;SDS011;38261;54.090;13.382;2023-03-01T02:01:45;5.90;;;4.13;;
52320;SDS011;38261;54.090;13.382;2023-03-01T02:03:10;6.00;;;3.63;;
52320;SDS011;38261;54.090;13.382;2023-03-01T02:04:38;8.40;;;4.37;;
52320;SDS011;38261;54.090;13.382;2023-03-01T02:07:34;8.30;;;4.17;;
52320;SDS011;38261;54.090;13.382;2023-03-01T02:08:59;7.00;;;3.90;;
52320;SDS011;38261;54.090;13.382;2023-03-01T02:10:26;6.97;;;4.50;;
52320;SDS011;38261;54.090;13.382;2023-03-01T02:11:50;7.03;;;4.27;;
52320;SDS011;38261;54.090;13.382;2023-03-01T02:13:13;7.30;;;4.60;;
52320;SDS011;38261;54.090;13.382;2023-03-01T02:14:35;10.90;;;4.70;;
52320;SDS011;38261;54.090;13.382;2023-03-01T02:15:57;9.00;;;4.60;;
52320;SDS011;38261;54.090;13.382;2023-03-01T02:17:20;5.87;;;4.00;;
52320;SDS011;38261;54.090;13.382;2023-03-01T02:18:42;12.60;;;4.37;;
52320;SDS011;38261;54.090;13.382;2023-03-01T02:21:53;5.97;;;4.00;;
52320;SDS011;38261;54.090;13.382;2023-03-01T02:23:28;12.03;;;4.53;;
52320;SDS011;38261;54.090;13.382;2023-03-01T02:26:35;7.20;;;4.73;;
52320;SDS011;38261;54.090;13.382;2023-03-01T02:29:37;7.70;;;4.53;;
52320;SDS011;38261;54.090;13.382;2023-03-01T02:31:00;4.97;;;3.93;;
52320;SDS011;38261;54.090;13.382;2023-03-01T02:32:41;6.53;;;4.03;;
52320;SDS011;38261;54.090;13.382;2023-03-01T02:34:04;8.83;;;4.37;;
52320;SDS011;38261;54.090;13.382;2023-03-01T02:35:31;7.20;;;4.60;;
52320;SDS011;38261;54.090;13.382;2023-03-01T02:37:10;7.23;;;4.70;;
52320;SDS011;38261;54.090;13.382;2023-03-01T02:38:36;8.30;;;4.70;;
52320;SDS011;38261;54.090;13.382;2023-03-01T02:39:59;7.27;;;4.60;;
52320;SDS011;38261;54.090;13.382;2023-03-01T02:41:24;10.27;;;4.60;;
52320;SDS011;38261;54.090;13.382;2023-03-01T02:42:50;8.80;;;4.50;;
52320;SDS011;38261;54.090;13.382;2023-03-01T02:44:17;6.23;;;4.00;;
52320;SDS011;38261;54.090;13.382;2023-03-01T02:45:43;5.67;;;4.17;;
52320;SDS011;38261;54.090;13.382;2023-03-01T02:47:10;8.93;;;4.07;;
52320;SDS011;38261;54.090;13.382;2023-03-01T02:48:40;10.07;;;5.20;;
52320;SDS011;38261;54.090;13.382;2023-03-01T02:50:09;10.13;;;5.07;;
52320;SDS011;38261;54.090;13.382;2023-03-01T02:55:27;6.70;;;3.70;;
52320;SDS011;38261;54.090;13.382;2023-03-01T02:56:49;6.43;;;4.23;;
52320;SDS011;38261;54.090;13.382;2023-03-01T02:58:12;5.80;;;3.90;;
52320;SDS011;38261;54.090;13.382;2023-03-01T02:59:34;5.77;;;3.53;;
52320;SDS011;38261;54.090;13.382;2023-03-01T03:01:00;9.53;;;4.57;;
52320;SDS011;38261;54.090;13.382;2023-03-01T03:02:24;10.50;;;4.10;;
52320;SDS011;38261;54.090;13.382;2023-03-01T03:04:00;7.13;;;4.40;;
52320;SDS011;38261;54.090;13.382;2023-03-01T03:05:23;6.03;;;4.30;;
52320;SDS011;38261;54.090;13.382;2023-03-01T03:06:48;7.57;;;3.90;;
52320;SDS011;38261;54.090;13.382;2023-03-01T03:08:11;6.10;;;3.93;;
52320;SDS011;38261;54.090;13.382;2023-03-01T03:09:34;6.40;;;3.90;;
52320;SDS011;38261;54.090;13.382;2023-03-01T03:10:56;8.50;;;4.03;;
52320;SDS011;38261;54.090;13.382;2023-03-01T03:12:18;9.33;;;3.87;;
52320;SDS011;38261;54.090;13.382;2023-03-01T03:13:40;7.80;;;4.60;;
52320;SDS011;38261;54.090;13.382;2023-03-01T03:15:10;7.47;;;4.30;;
52320;SDS011;38261;54.090;13.382;2023-03-01T03:16:34;8.50;;;4.73;;
52320;SDS011;38261;54.090;13.382;2023-03-01T03:17:57;6.97;;;4.10;;
52320;SDS011;38261;54.090;13.382;2023-03-01T03:19:20;6.27;;;3.90;;
52320;SDS011;38261;54.090;13.382;2023-03-01T03:20:42;6.27;;;3.47;;
52320;SDS011;38261;54.090;13.382;2023-03-01T03:22:05;7.47;;;3.10;;
52320;SDS011;38261;54.090;13.382;2023-03-01T03:23:27;7.47;;;3.83;;
52320;SDS011;38261;54.090;13.382;2023-03-01T03:24:50;7.60;;;4.00;;
52320;SDS011;38261;54.090;13.382;2023-03-01T03:26:12;5.20;;;3.67;;
52320;SDS011;38261;54.090;13.382;2023-03-01T03:27:37;6.17;;;4.03;;
52320;SDS011;38261;54.090;13.382;2023-03-01T03:28:59;8.57;;;3.63;;
52320;SDS011;38261;54.090;13.382;2023-03-01T03:30:22;5.00;;;3.90;;
52320;SDS011;38261;54.090;13.382;2023-03-01T03:31:46;4.10;;;3.10;;
52320;SDS011;38261;54.090;13.382;2023-03-01T03:33:11;8.67;;;4.67;;
52320;SDS011;38261;54.090;13.382;2023-03-01T03:34:35;8.23;;;4.07;;
52320;SDS011;38261;54.090;13.382;2023-03-01T03:35:57;6.93;;;3.63;;
52320;SDS011;38261;54.090;13.382;2023-03-01T03:37:19;7.87;;;3.70;;
52320;SDS011;38261;54.090;13.382;2023-03-01T03:39:00;5.40;;;3.43;;
52320;SDS011;38261;54.090;13.382;2023-03-01T03:40:22;9.03;;;4.20;;
52320;SDS011;38261;54.090;13.382;2023-03-01T03:41:44;9.87;;;3.50;;
52320;SDS011;38261;54.090;13.382;2023-03-01T03:43:08;8.70;;;3.90;;
52320;SDS011;38261;54.090;13.382;2023-03-01T03:44:31;8.30;;;4.10;;
52320;SDS011;38261;54.090;13.382;2023-03-01T03:45:53;8.73;;;3.80;;
52320;SDS011;38261;54.090;13.382;2023-03-01T03:47:18;10.87;;;4.60;;
52320;SDS011;38261;54.090;13.382;2023-03-01T03:48:41;11.80;;;6.13;;
52320;SDS011;38261;54.090;13.382;2023-03-01T03:50:05;7.33;;;4.70;;
52320;SDS011;38261;54.090;13.382;2023-03-01T03:51:27;7.63;;;4.03;;
52320;SDS011;38261;54.090;13.382;2023-03-01T03:52:50;7.40;;;4.20;;
52320;SDS011;38261;54.090;13.382;2023-03-01T03:54:12;7.87;;;4.07;;
52320;SDS011;38261;54.090;13.382;2023-03-01T03:55:34;6.80;;;3.13;;
52320;SDS011;38261;54.090;13.382;2023-03-01T03:57:00;6.30;;;3.87;;
52320;SDS011;38261;54.090;13.382;2023-03-01T03:58:23;10.50;;;3.53;;
52320;SDS011;38261;54.090;13.382;2023-03-01T03:59:45;5.70;;;3.80;;
52320;SDS011;38261;54.090;13.382;2023-03-01T04:01:07;10.40;;;4.40;;
52320;SDS011;38261;54.090;13.382;2023-03-01T04:02:30;9.87;;;4.63;;
52320;SDS011;38261;54.090;13.382;2023-03-01T04:03:52;12.00;;;5.23;;
52320;SDS011;38261;54.090;13.382;2023-03-01T04:05:16;9.27;;;5.17;;
52320;SDS011;38261;54.090;13.382;2023-03-01T04:06:40;8.87;;;4.23;;
52320;SDS011;38261;54.090;13.382;2023-03-01T04:08:02;5.70;;;4.20;;
52320;SDS011;38261;54.090;13.382;2023-03-01T04:09:24;5.53;;;3.50;;
52320;SDS011;38261;54.090;13.382;2023-03-01T04:10:48;7.20;;;4.13;;
52320;SDS011;38261;54.090;13.382;2023-03-01T04:12:12;7.03;;;4.20;;
52320;SDS011;38261;54.090;13.382;2023-03-01T04:13:34;5.90;;;3.37;;
52320;SDS011;38261;54.090;13.382;2023-03-01T04:14:56;7.53;;;4.27;;
52320;SDS011;38261;54.090;13.382;2023-03-01T04:16:18;7.50;;;4.30;;
52320;SDS011;38261;54.090;13.382;2023-03-01T04:17:44;7.50;;;4.27;;
52320;SDS011;38261;54.090;13.382;2023-03-01T04:19:08;6.27;;;3.93;;
52320;SDS011;38261;54.090;13.382;2023-03-01T04:20:31;7.40;;;3.97;;
52320;SDS011;38261;54.090;13.382;2023-03-01T04:21:56;9.50;;;3.90;;
52320;SDS011;38261;54.090;13.382;2023-03-01T04:23:19;14.40;;;4.30;;
52320;SDS011;38261;54.090;13.382;2023-03-01T04:24:42;8.47;;;4.43;;
52320;SDS011;38261;54.090;13.382;2023-03-01T04:26:04;9.87;;;4.60;;
52320;SDS011;38261;54.090;13.382;2023-03-01T04:27:27;5.40;;;4.10;;
52320;SDS011;38261;54.090;13.382;2023-03-01T04:28:49;5.67;;;4.23;;
52320;SDS011;38261;54.090;13.382;2023-03-01T04:30:12;5.80;;;4.00;;
52320;SDS011;38261;54.090;13.382;2023-03-01T04:31:34;6.33;;;4.30;;
52320;SDS011;38261;54.090;13.382;2023-03-01T04:32:56;8.10;;;4.63;;
52320;SDS011;38261;54.090;13.382;2023-03-01T04:34:18;4.57;;;3.73;;
52320;SDS011;38261;54.090;13.382;2023-03-01T04:35:41;9.70;;;4.23;;
52320;SDS011;38261;54.090;13.382;2023-03-01T04:37:03;7.77;;;3.87;;
52320;SDS011;38261;54.090;13.382;2023-03-01T04:38:25;14.63;;;4.30;;
52320;SDS011;38261;54.090;13.382;2023-03-01T04:39:47;10.10;;;4.93;;
52320;SDS011;38261;54.090;13.382;2023-03-01T04:41:09;6.97;;;4.37;;
52320;SDS011;38261;54.090;13.382;2023-03-01T04:42:32;6.33;;;3.83;;
52320;SDS011;38261;54.090;13.382;2023-03-01T04:43:54;6.17;;;3.93;;
52320;SDS011;38261;54.090;13.382;2023-03-01T04:45:16;4.27;;;3.63;;
52320;SDS011;38261;54.090;13.382;2023-03-01T04:46:38;5.03;;;3.80;;
52320;SDS011;38261;54.090;13.382;2023-03-01T04:48:00;9.63;;;4.17;;
52320;SDS011;38261;54.090;13.382;2023-03-01T04:49:23;7.73;;;3.97;;
52320;SDS011;38261;54.090;13.382;2023-03-01T04:50:45;7.47;;;4.00;;
52320;SDS011;38261;54.090;13.382;2023-03-01T04:52:07;7.10;;;4.20;;
52320;SDS011;38261;54.090;13.382;2023-03-01T04:53:30;4.60;;;3.53;;
52320;SDS011;38261;54.090;13.382;2023-03-01T04:54:53;5.90;;;3.70;;
52320;SDS011;38261;54.090;13.382;2023-03-01T04:56:16;8.30;;;4.00;;
52320;SDS011;38261;54.090;13.382;2023-03-01T04:57:41;8.03;;;3.57;;
52320;SDS011;38261;54.090;13.382;2023-03-01T04:59:03;11.40;;;4.13;;
52320;SDS011;38261;54.090;13.382;2023-03-01T05:00:27;8.67;;;3.90;;
52320;SDS011;38261;54.090;13.382;2023-03-01T05:01:49;5.60;;;3.57;;
52320;SDS011;38261;54.090;13.382;2023-03-01T05:03:12;8.07;;;4.20;;
52320;SDS011;38261;54.090;13.382;2023-03-01T05:04:39;12.27;;;4.00;;
52320;SDS011;38261;54.090;13.382;2023-03-01T05:06:01;7.20;;;3.93;;
52320;SDS011;38261;54.090;13.382;2023-03-01T05:07:23;9.70;;;4.90;;
52320;SDS011;38261;54.090;13.382;2023-03-01T05:08:46;6.60;;;3.90;;
52320;SDS011;38261;54.090;13.382;2023-03-01T05:10:08;4.67;;;3.40;;
52320;SDS011;38261;54.090;13.382;2023-03-01T05:11:31;8.70;;;4.50;;
52320;SDS011;38261;54.090;13.382;2023-03-01T05:12:57;5.53;;;3.33;;
52320;SDS011;38261;54.090;13.382;2023-03-01T05:14:20;5.90;;;3.40;;
52320;SDS011;38261;54.090;13.382;2023-03-01T05:15:43;6.70;;;3.97;;
52320;SDS011;38261;54.090;13.382;2023-03-01T05:17:05;7.03;;;4.00;;
52320;SDS011;38261;54.090;13.382;2023-03-01T05:18:28;5.50;;;3.40;;
52320;SDS011;38261;54.090;13.382;2023-03-01T05:19:52;10.03;;;4.17;;
52320;SDS011;38261;54.090;13.382;2023-03-01T05:21:16;7.40;;;4.13;;
52320;SDS011;38261;54.090;13.382;2023-03-01T05:22:38;5.47;;;3.60;;
52320;SDS011;38261;54.090;13.382;2023-03-01T05:24:00;6.00;;;3.80;;
52320;SDS011;38261;54.090;13.382;2023-03-01T05:25:23;9.67;;;3.83;;
52320;SDS011;38261;54.090;13.382;2023-03-01T05:26:45;12.17;;;5.30;;
52320;SDS011;38261;54.090;13.382;2023-03-01T05:28:10;8.73;;;3.97;;
52320;SDS011;38261;54.090;13.382;2023-03-01T05:29:33;9.30;;;4.17;;
52320;SDS011;38261;54.090;13.382;2023-03-01T05:30:56;7.60;;;4.50;;
52320;SDS011;38261;54.090;13.382;2023-03-01T05:32:19;7.27;;;4.73;;
52320;SDS011;38261;54.090;13.382;2023-03-01T05:33:42;9.73;;;4.70;;
52320;SDS011;38261;54.090;13.382;2023-03-01T05:35:05;6.17;;;3.90;;
52320;SDS011;38261;54.090;13.382;2023-03-01T05:36:27;8.67;;;4.03;;
52320;SDS011;38261;54.090;13.382;2023-03-01T05:37:50;5.10;;;4.20;;
52320;SDS011;38261;54.090;13.382;2023-03-01T05:39:12;14.13;;;3.90;;
52320;SDS011;38261;54.090;13.382;2023-03-01T05:40:35;8.80;;;4.27;;
52320;SDS011;38261;54.090;13.382;2023-03-01T05:41:58;5.03;;;3.60;;
52320;SDS011;38261;54.090;13.382;2023-03-01T05:43:22;7.23;;;3.73;;
52320;SDS011;38261;54.090;13.382;2023-03-01T05:44:44;7.30;;;4.43;;
52320;SDS011;38261;54.090;13.382;2023-03-01T05:46:06;9.83;;;4.37;;
52320;SDS011;38261;54.090;13.382;2023-03-01T05:47:32;7.20;;;4.70;;
52320;SDS011;38261;54.090;13.382;2023-03-01T05:48:54;9.60;;;4.33;;
52320;SDS011;38261;54.090;13.382;2023-03-01T05:50:18;7.90;;;4.50;;
52320;SDS011;38261;54.090;13.382;2023-03-01T05:51:43;6.13;;;3.90;;
52320;SDS011;38261;54.090;13.382;2023-03-01T05:53:12;6.47;;;4.20;;
52320;SDS011;38261;54.090;13.382;2023-03-01T05:54:36;7.27;;;4.90;;
52320;SDS011;38261;54.090;13.382;2023-03-01T05:55:58;5.73;;;4.10;;
52320;SDS011;38261;54.090;13.382;2023-03-01T05:57:20;8.73;;;5.87;;
52320;SDS011;38261;54.090;13.382;2023-03-01T05:58:42;10.90;;;6.40;;
52320;SDS011;38261;54.090;13.382;2023-03-01T06:00:04;14.47;;;6.47;;
52320;SDS011;38261;54.090;13.382;2023-03-01T06:01:27;13.33;;;6.07;;
52320;SDS011;38261;54.090;13.382;2023-03-01T06:02:50;9.57;;;6.03;;
52320;SDS011;38261;54.090;13.382;2023-03-01T06:04:15;9.50;;;5.83;;
52320;SDS011;38261;54.090;13.382;2023-03-01T06:05:37;9.47;;;5.70;;
52320;SDS011;38261;54.090;13.382;2023-03-01T06:07:00;10.63;;;5.60;;
52320;SDS011;38261;54.090;13.382;2023-03-01T06:08:23;10.97;;;5.40;;
52320;SDS011;38261;54.090;13.382;2023-03-01T06:09:46;10.40;;;5.80;;
52320;SDS011;38261;54.090;13.382;2023-03-01T06:11:08;10.40;;;5.97;;
52320;SDS011;38261;54.090;13.382;2023-03-01T06:12:31;10.67;;;6.50;;
52320;SDS011;38261;54.090;13.382;2023-03-01T06:13:57;9.63;;;6.00;;
52320;SDS011;38261;54.090;13.382;2023-03-01T06:15:19;13.23;;;6.27;;
52320;SDS011;38261;54.090;13.382;2023-03-01T06:16:42;10.03;;;6.07;;
52320;SDS011;38261;54.090;13.382;2023-03-01T06:18:04;10.80;;;5.90;;
52320;SDS011;38261;54.090;13.382;2023-03-01T06:19:26;9.67;;;5.57;;
52320;SDS011;38261;54.090;13.382;2023-03-01T06:20:57;9.90;;;5.40;;
52320;SDS011;38261;54.090;13.382;2023-03-01T06:22:19;7.40;;;5.23;;
52320;SDS011;38261;54.090;13.382;2023-03-01T06:23:41;10.60;;;4.70;;
52320;SDS011;38261;54.090;13.382;2023-03-01T06:25:03;5.77;;;4.20;;
52320;SDS011;38261;54.090;13.382;2023-03-01T06:26:26;7.23;;;4.27;;
52320;SDS011;38261;54.090;13.382;2023-03-01T06:27:48;8.30;;;4.63;;
52320;SDS011;38261;54.090;13.382;2023-03-01T06:29:10;9.90;;;5.87;;
52320;SDS011;38261;54.090;13.382;2023-03-01T06:30:32;13.73;;;6.17;;
52320;SDS011;38261;54.090;13.382;2023-03-01T06:31:55;11.13;;;6.20;;
52320;SDS011;38261;54.090;13.382;2023-03-01T06:33:17;8.27;;;5.33;;
52320;SDS011;38261;54.090;13.382;2023-03-01T06:34:41;8.90;;;5.20;;
52320;SDS011;38261;54.090;13.382;2023-03-01T06:36:03;7.33;;;4.67;;
52320;SDS011;38261;54.090;13.382;2023-03-01T06:37:25;8.87;;;5.20;;
52320;SDS011;38261;54.090;13.382;2023-03-01T06:38:47;7.73;;;4.90;;
52320;SDS011;38261;54.090;13.382;2023-03-01T06:40:10;8.70;;;5.50;;
52320;SDS011;38261;54.090;13.382;2023-03-01T06:41:33;10.30;;;5.30;;
52320;SDS011;38261;54.090;13.382;2023-03-01T06:42:55;8.13;;;5.27;;
52320;SDS011;38261;54.090;13.382;2023-03-01T06:44:17;10.60;;;4.80;;
52320;SDS011;38261;54.090;13.382;2023-03-01T06:45:39;7.40;;;4.80;;
52320;SDS011;38261;54.090;13.382;2023-03-01T06:47:01;7.43;;;4.97;;
52320;SDS011;38261;54.090;13.382;2023-03-01T06:48:24;7.30;;;4.50;;
52320;SDS011;38261;54.090;13.382;2023-03-01T06:49:46;6.57;;;4.70;;
52320;SDS011;38261;54.090;13.382;2023-03-01T06:51:08;6.47;;;4.67;;
52320;SDS011;38261;54.090;13.382;2023-03-01T06:52:30;6.50;;;3.77;;
52320;SDS011;38261;54.090;13.382;2023-03-01T06:53:53;9.30;;;4.80;;
52320;SDS011;38261;54.090;13.382;2023-03-01T06:55:15;7.30;;;4.00;;
52320;SDS011;38261;54.090;13.382;2023-03-01T06:56:37;7.23;;;3.80;;
52320;SDS011;38261;54.090;13.382;2023-03-01T06:58:00;7.50;;;4.17;;
52320;SDS011;38261;54.090;13.382;2023-03-01T06:59:23;5.20;;;4.20;;
52320;SDS011;38261;54.090;13.382;2023-03-01T07:00:45;7.67;;;3.70;;
52320;SDS011;38261;54.090;13.382;2023-03-01T07:02:09;7.17;;;4.03;;
52320;SDS011;38261;54.090;13.382;2023-03-01T07:03:33;8.50;;;4.13;;
52320;SDS011;38261;54.090;13.382;2023-03-01T07:04:55;5.30;;;3.73;;
52320;SDS011;38261;54.090;13.382;2023-03-01T07:06:17;7.20;;;3.83;;
52320;SDS011;38261;54.090;13.382;2023-03-01T07:07:39;5.53;;;3.67;;
52320;SDS011;38261;54.090;13.382;2023-03-01T07:09:01;8.03;;;4.57;;
52320;SDS011;38261;54.090;13.382;2023-03-01T07:10:23;9.47;;;4.83;;
52320;SDS011;38261;54.090;13.382;2023-03-01T07:11:46;6.60;;;4.73;;
52320;SDS011;38261;54.090;13.382;2023-03-01T07:13:08;13.73;;;3.83;;
52320;SDS011;38261;54.090;13.382;2023-03-01T07:14:30;11.03;;;5.33;;
52320;SDS011;38261;54.090;13.382;2023-03-01T07:15:52;7.47;;;4.87;;
52320;SDS011;38261;54.090;13.382;2023-03-01T07:17:14;7.97;;;4.23;;
52320;SDS011;38261;54.090;13.382;2023-03-01T07:18:36;6.17;;;4.40;;
52320;SDS011;38261;54.090;13.382;2023-03-01T07:19:58;8.40;;;4.70;;
52320;SDS011;38261;54.090;13.382;2023-03-01T07:21:20;7.83;;;5.10;;
52320;SDS011;38261;54.090;13.382;2023-03-01T07:22:43;9.83;;;4.70;;
52320;SDS011;38261;54.090;13.382;2023-03-01T07:24:06;7.93;;;5.50;;
52320;SDS011;38261;54.090;13.382;2023-03-01T07:25:28;10.77;;;5.00;;
52320;SDS011;38261;54.090;13.382;2023-03-01T07:26:51;9.40;;;5.70;;
52320;SDS011;38261;54.090;13.382;2023-03-01T07:28:14;8.50;;;5.57;;
52320;SDS011;38261;54.090;13.382;2023-03-01T07:29:36;11.30;;;6.30;;
52320;SDS011;38261;54.090;13.382;2023-03-01T07:31:02;8.73;;;4.80;;
52320;SDS011;38261;54.090;13.382;2023-03-01T07:32:24;10.17;;;5.43;;
52320;SDS011;38261;54.090;13.382;2023-03-01T07:33:46;9.70;;;5.20;;
52320;SDS011;38261;54.090;13.382;2023-03-01T07:35:08;9.87;;;5.50;;
52320;SDS011;38261;54.090;13.382;2023-03-01T07:36:31;8.10;;;4.50;;
52320;SDS011;38261;54.090;13.382;2023-03-01T07:37:53;12.20;;;4.80;;
52320;SDS011;38261;54.090;13.382;2023-03-01T07:39:15;12.10;;;5.07;;
52320;SDS011;38261;54.090;13.382;2023-03-01T07:40:40;9.00;;;4.80;;
52320;SDS011;38261;54.090;13.382;2023-03-01T07:42:02;8.03;;;5.03;;
52320;SDS011;38261;54.090;13.382;2023-03-01T07:43:24;5.90;;;4.40;;
52320;SDS011;38261;54.090;13.382;2023-03-01T07:44:46;12.20;;;5.93;;
52320;SDS011;38261;54.090;13.382;2023-03-01T07:46:08;15.13;;;5.63;;
52320;SDS011;38261;54.090;13.382;2023-03-01T07:47:31;8.60;;;5.60;;
52320;SDS011;38261;54.090;13.382;2023-03-01T07:48:53;8.40;;;4.50;;
52320;SDS011;38261;54.090;13.382;2023-03-01T07:50:15;13.00;;;5.57;;
52320;SDS011;38261;54.090;13.382;2023-03-01T07:51:38;10.23;;;5.27;;
52320;SDS011;38261;54.090;13.382;2023-03-01T07:53:00;7.53;;;5.03;;
52320;SDS011;38261;54.090;13.382;2023-03-01T07:54:22;13.53;;;5.40;;
52320;SDS011;38261;54.090;13.382;2023-03-01T07:55:44;11.77;;;5.17;;
52320;SDS011;38261;54.090;13.382;2023-03-01T07:57:06;15.60;;;7.60;;
52320;SDS011;38261;54.090;13.382;2023-03-01T07:58:28;9.00;;;5.00;;
52320;SDS011;38261;54.090;13.382;2023-03-01T07:59:50;12.43;;;5.93;;
52320;SDS011;38261;54.090;13.382;2023-03-01T08:01:13;14.03;;;5.60;;
52320;SDS011;38261;54.090;13.382;2023-03-01T08:02:37;9.17;;;5.30;;
52320;SDS011;38261;54.090;13.382;2023-03-01T08:04:01;8.77;;;4.90;;
52320;SDS011;38261;54.090;13.382;2023-03-01T08:05:23;9.93;;;5.03;;
52320;SDS011;38261;54.090;13.382;2023-03-01T08:06:46;6.07;;;4.27;;
52320;SDS011;38261;54.090;13.382;2023-03-01T08:08:08;11.43;;;4.27;;
52320;SDS011;38261;54.090;13.382;2023-03-01T08:09:30;7.60;;;4.77;;
52320;SDS011;38261;54.090;13.382;2023-03-01T08:10:52;11.40;;;5.47;;
52320;SDS011;38261;54.090;13.382;2023-03-01T08:12:17;25.30;;;7.30;;
52320;SDS011;38261;54.090;13.382;2023-03-01T08:13:40;21.27;;;7.23;;
52320;SDS011;38261;54.090;13.382;2023-03-01T08:15:03;30.57;;;10.30;;
52320;SDS011;38261;54.090;13.382;2023-03-01T08:16:25;11.10;;;6.43;;
52320;SDS011;38261;54.090;13.382;2023-03-01T08:17:48;13.43;;;5.80;;
52320;SDS011;38261;54.090;13.382;2023-03-01T08:19:11;15.60;;;5.90;;
52320;SDS011;38261;54.090;13.382;2023-03-01T08:20:37;22.37;;;8.00;;
52320;SDS011;38261;54.090;13.382;2023-03-01T08:21:59;14.40;;;6.03;;
52320;SDS011;38261;54.090;13.382;2023-03-01T08:23:21;10.10;;;5.63;;